Latest Weather Observations for Cape Byron

IDN60801

Issued at 8:03 am EST Saturday 4 July 2015 (issued every 30 minutes, with the page automatically refreshed every 10 minutes)

About weather observations | Map of weather stations | Latest weather observations for NSW | Other Formats
Station Details ID: 058216 Name: CAPE BYRON AWS Lat: -28.64 Lon: 153.64 Height: 95.0 m
Data from the previous 72 hours. | See also: Recent months at Cape Byron
Date/Time
EST
Temp
°C
App
Temp
°C
Dew
Point
Rel
Hum
%
Delta-T
°C
Wind Press
QNH
hPa
Press
MSL
hPa
Rain
since 9 am
mm
Dir
 
Spd
km/h
Gust
km/h
Spd
kts
Gust
kts
04/08:00am 12.2 6.3 7.7 74 2.2 SW 28 33 15 18 1023.5 1023.4 4.4
04/07:30am 12.0 6.2 7.9 76 2.0 SW 28 33 15 18 1023.3 1023.2 4.4
04/07:00am 12.0 5.4 7.9 76 2.0 SW 32 39 17 21 1023.2 1023.1 4.4
04/06:30am 11.9 5.3 7.8 76 2.0 WSW 32 39 17 21 1022.9 1022.8 4.4
04/06:00am 11.6 5.4 7.7 77 1.9 WSW 30 37 16 20 1022.8 1022.7 4.4
04/05:30am 11.4 4.8 7.9 79 1.7 WSW 32 41 17 22 1022.6 1022.5 4.4
04/05:00am 11.1 5.4 8.3 83 1.4 WSW 28 39 15 21 1022.6 1022.5 4.4
04/04:30am 11.2 4.8 8.6 84 1.3 SW 32 43 17 23 1022.8 1022.7 4.4
04/04:00am 11.0 4.5 8.8 86 1.1 WSW 33 44 18 24 1022.7 1022.6 4.4
04/03:30am 10.9 5.3 8.8 87 1.0 WSW 28 39 15 21 1022.8 1022.7 4.4
04/03:00am 11.3 5.7 8.7 84 1.3 WSW 28 39 15 21 1022.7 1022.6 4.4
04/02:30am 11.4 5.9 9.0 85 1.2 WSW 28 33 15 18 1022.8 1022.7 4.4
04/02:00am 11.2 5.7 9.3 88 1.0 WSW 28 35 15 19 1022.8 1022.7 4.4
04/01:30am 10.8 5.4 9.4 91 0.7 WSW 28 35 15 19 1022.7 1022.6 4.4
04/01:00am 11.4 7.0 10.3 93 0.6 WSW 24 28 13 15 1023.0 1022.9 4.4
04/12:30am 11.3 7.5 9.9 91 0.7 SW 20 26 11 14 1023.4 1023.3 3.8
04/12:00am 11.7 6.8 10.1 90 0.8 WSW 26 30 14 16 1023.2 1023.1 3.2
 
Date/Time
EST
Temp
°C
App
Temp
°C
Dew
Point
Rel
Hum
%
Delta-T
°C
Wind Press
QNH
hPa
Press
MSL
hPa
Rain
since 9 am
mm
Dir
 
Spd
km/h
Gust
km/h
Spd
kts
Gust
kts
03/11:30pm 11.9 6.6 10.0 88 1.0 SW 28 37 15 20 1023.5 1023.4 3.2
03/11:00pm 12.5 7.0 9.3 81 1.6 SW 28 33 15 18 1023.8 1023.7 3.0
03/10:30pm 12.5 7.5 9.5 82 1.5 WSW 26 32 14 17 1023.7 1023.6 3.0
03/10:00pm 12.0 6.3 9.7 86 1.2 SW 30 35 16 19 1023.7 1023.6 3.0
03/09:30pm 11.9 6.7 10.1 89 0.9 SW 28 33 15 18 1023.6 1023.5 3.0
03/09:00pm 11.7 5.8 10.3 91 0.7 SW 32 39 17 21 1023.6 1023.5 3.0
03/08:30pm 12.2 7.9 10.8 91 0.7 SW 24 32 13 17 1023.8 1023.7 2.8
03/08:00pm 12.8 7.8 10.9 88 1.0 SW 28 37 15 20 1023.6 1023.5 0.4
03/07:30pm 13.2 8.0 10.2 82 1.6 SW 28 33 15 18 1023.3 1023.2 0.4
03/07:00pm 13.3 9.8 10.8 85 1.3 SW 20 26 11 14 1023.2 1023.1 0.4
03/06:30pm 14.1 8.8 11.3 83 1.5 SW 30 39 16 21 1022.8 1022.7 0.0
03/06:05pm 15.5 10.5 12.1 80 1.9 SW 30 54 16 29 1022.6 1022.5 0.0
03/06:00pm 14.7 9.8 10.1 74 2.4 SW 26 32 14 17 1022.5 1022.4 0.0
03/05:30pm 15.1 9.1 10.1 72 2.6 SW 32 43 17 23 1022.2 1022.1 0.0
03/05:00pm 15.3 9.3 10.1 71 2.7 SW 32 41 17 22 1022.2 1022.1 0.0
03/04:30pm 15.7 9.8 10.5 71 2.8 SW 32 41 17 22 1021.9 1021.8 0.0
03/04:00pm 16.4 8.6 11.1 71 2.8 SSW 43 61 23 33 1021.6 1021.5 0.0
03/03:55pm 16.2 8.7 10.7 70 2.9 SSW 41 61 22 33 1021.5 1021.4 0.0
03/03:30pm 16.5 10.5 10.8 69 3.1 SW 33 46 18 25 1021.5 1021.4 0.0
03/03:02pm 16.1 9.8 9.8 66 3.3 SW 33 52 18 28 1021.4 1021.3 0.0
03/03:00pm 16.0 9.3 9.7 66 3.3 SW 35 52 19 28 1021.4 1021.3 0.0
03/02:30pm 16.0 9.1 9.0 63 3.6 SW 35 48 19 26 1021.4 1021.3 0.0
03/02:00pm 16.2 9.8 9.2 63 3.6 SW 33 44 18 24 1021.4 1021.3 0.0
03/01:30pm 15.9 9.1 9.3 65 3.4 SW 35 52 19 28 1021.3 1021.2 0.0
03/01:21pm 16.3 9.9 9.3 63 3.6 SW 33 52 18 28 1021.3 1021.2 0.0
03/01:00pm 15.9 9.3 8.4 61 3.8 SW 33 44 18 24 1021.4 1021.3 0.0
03/12:30pm 15.2 7.9 7.2 59 4.0 SW 35 46 19 25 1021.7 1021.6 0.0
03/12:00pm 14.7 7.6 6.5 58 4.0 SW 33 44 18 24 1022.1 1022.0 0.0
03/11:30am 14.7 7.8 6.5 58 4.0 SW 32 46 17 25 1022.3 1022.2 0.0
03/11:03am 14.2 7.2 5.8 57 4.0 SW 32 50 17 27 1022.7 1022.6 0.0
03/11:00am 14.2 7.2 5.8 57 4.0 SW 32 44 17 24 1022.7 1022.6 0.0
03/10:30am 13.6 6.1 4.7 55 4.1 SW 33 44 18 24 1022.9 1022.8 0.0
03/10:00am 12.8 5.3 3.7 54 4.1 SW 32 44 17 24 1023.1 1023.0 0.0
03/09:30am 11.9 4.3 2.6 53 4.1 WSW 32 41 17 22 1023.3 1023.2 0.0
03/09:00am 11.2 3.4 2.0 53 3.9 WSW 32 44 17 24 1023.1 1023.0 0.0
03/08:30am 10.3 2.5 1.9 56 3.6 WSW 32 41 17 22 1022.8 1022.7 0.0
03/08:00am 9.9 2.0 1.3 55 3.6 WSW 32 43 17 23 1022.6 1022.5 0.0
03/07:30am 9.9 1.5 1.3 55 3.6 WSW 35 43 19 23 1022.4 1022.3 0.0
03/07:00am 9.7 1.3 1.4 56 3.4 WSW 35 44 19 24 1022.2 1022.1 0.0
03/06:30am 9.7 0.9 1.6 57 3.4 WSW 37 46 20 25 1021.7 1021.6 0.0
03/06:00am 9.8 1.3 1.2 55 3.5 WSW 35 44 19 24 1021.4 1021.3 0.0
03/05:30am 9.8 1.0 1.5 56 3.5 WSW 37 44 20 24 1021.1 1021.0 0.0
03/05:00am 9.9 1.1 1.5 56 3.5 WSW 37 46 20 25 1020.8 1020.7 0.0
03/04:30am 10.1 1.3 1.5 55 3.6 WSW 37 46 20 25 1020.5 1020.4 0.0
03/04:00am 10.1 1.0 1.7 56 3.5 WSW 39 46 21 25 1020.4 1020.3 0.0
03/03:30am 10.3 1.2 1.7 55 3.6 WSW 39 50 21 27 1020.3 1020.2 0.0
03/03:00am 10.5 1.0 1.9 55 3.6 SW 41 52 22 28 1020.0 1019.9 0.0
03/02:30am 10.9 1.0 1.7 53 3.9 SW 43 59 23 32 1020.0 1019.9 0.0
03/02:00am 11.2 1.3 1.7 52 4.0 SW 43 56 23 30 1020.1 1020.0 0.0
03/01:30am 11.2 1.3 1.5 51 4.1 SW 43 52 23 28 1020.2 1020.1 0.0
03/01:00am 11.4 1.5 1.4 50 4.2 SW 43 52 23 28 1019.9 1019.8 0.0
03/12:30am 11.6 3.2 1.8 51 4.2 WSW 35 48 19 26 1019.7 1019.6 0.0
03/12:00am 11.8 3.4 1.7 50 4.3 WSW 35 50 19 27 1019.8 1019.7 0.0
 
Date/Time
EST
Temp
°C
App
Temp
°C
Dew
Point
Rel
Hum
%
Delta-T
°C
Wind Press
QNH
hPa
Press
MSL
hPa
Rain
since 9 am
mm
Dir
 
Spd
km/h
Gust
km/h
Spd
kts
Gust
kts
02/11:34pm 12.1 3.7 1.4 48 4.6 WSW 35 54 19 29 1019.7 1019.6 0.0
02/11:30pm 12.3 3.5 1.3 47 4.7 WSW 37 54 20 29 1019.7 1019.6 0.0
02/11:27pm 12.1 3.7 1.4 48 4.6 WSW 35 54 19 29 1019.8 1019.7 0.0
02/11:00pm 12.3 3.0 0.7 45 4.9 WSW 39 52 21 28 1019.7 1019.6 0.0
02/10:30pm 12.7 3.8 0.5 43 5.1 WSW 37 52 20 28 1019.6 1019.5 0.0
02/10:00pm 12.7 4.7 0.1 42 5.2 WSW 32 48 17 26 1019.6 1019.5 0.0
02/09:30pm 13.1 5.2 1.1 44 5.1 W 32 43 17 23 1019.2 1019.1 0.0
02/09:00pm 13.5 6.9 2.1 46 5.0 W 26 37 14 20 1018.8 1018.7 0.0
02/08:30pm 13.7 7.4 3.5 50 4.6 WNW 26 33 14 18 1018.3 1018.2 0.0
02/08:00pm 13.9 7.7 4.2 52 4.5 WNW 26 35 14 19 1018.3 1018.2 0.0
02/07:30pm 14.6 8.3 4.0 49 4.9 WNW 26 33 14 18 1018.2 1018.1 0.0
02/07:00pm 15.3 10.0 4.9 50 4.9 WNW 22 30 12 16 1017.7 1017.6 0.0
02/06:30pm 15.8 10.9 5.1 49 5.1 WNW 20 24 11 13 1017.7 1017.6 0.0
02/06:00pm 16.1 11.4 6.0 51 4.9 W 20 30 11 16 1017.7 1017.6 0.0
02/05:30pm 16.1 11.4 6.0 51 4.9 W 20 22 11 12 1017.5 1017.4 0.0
02/05:00pm 16.0 12.6 7.7 58 4.2 WNW 15 19 8 10 1017.4 1017.3 0.0
02/04:30pm 16.9 12.3 6.4 50 5.2 W 20 28 11 15 1017.5 1017.4 0.0
02/04:00pm 17.0 13.9 7.4 53 4.8 WNW 13 20 7 11 1017.2 1017.1 0.0
02/03:30pm 18.1 15.7 8.7 54 4.9 WNW 11 17 6 9 1017.0 1016.9 0.0
02/03:00pm 17.9 14.7 8.5 54 4.9 W 15 24 8 13 1017.4 1017.3 0.0
02/02:30pm 18.4 15.2 8.4 52 5.2 WSW 15 20 8 11 1017.6 1017.5 0.0
02/02:00pm 19.8 20.2 12.6 63 4.1 NW 2 9 1 5 1017.5 1017.4 0.0
02/01:30pm 19.5 19.1 12.3 63 4.0 N 6 7 3 4 1017.6 1017.5 0.0
02/01:00pm 19.0 18.3 12.0 64 3.9 N 7 9 4 5 1018.1 1018.0 0.0
02/12:30pm 19.9 19.3 12.4 62 4.2 NNE 7 9 4 5 1018.2 1018.1 0.0
02/12:00pm 18.9 18.2 11.5 62 4.1 NNW 6 11 3 6 1019.0 1018.9 0.0
02/11:30am 18.5 17.4 11.8 65 3.7 W 9 13 5 7 1019.7 1019.6 0.0
02/11:00am 17.8 16.2 11.4 66 3.5 W 11 20 6 11 1020.3 1020.2 0.0
02/10:30am 17.5 16.2 11.1 66 3.5 NW 9 17 5 9 1020.6 1020.5 0.0
02/10:00am 16.3 14.1 10.8 70 2.9 WNW 13 19 7 10 1021.1 1021.0 0.0
02/09:30am 15.6 13.0 10.6 72 2.7 W 15 24 8 13 1021.6 1021.5 0.0
02/09:00am 14.8 11.4 10.6 76 2.2 W 19 26 10 14 1021.4 1021.3 0.0
02/08:30am 14.3 10.6 10.3 77 2.1 W 20 26 11 14 1021.2 1021.1 0.0
02/08:00am 14.1 9.7 10.3 78 2.0 W 24 33 13 18 1021.2 1021.1 0.0
02/07:30am 13.8 9.5 10.6 81 1.7 WSW 24 32 13 17 1021.0 1020.9 0.0
02/07:00am 13.9 8.8 10.7 81 1.7 WSW 28 33 15 18 1020.8 1020.7 0.0
02/06:30am 14.2 9.2 11.0 81 1.7 WSW 28 35 15 19 1020.5 1020.4 0.0
02/06:00am 14.1 9.6 11.4 84 1.4 WSW 26 33 14 18 1020.5 1020.4 0.0
02/05:30am 13.9 10.7 11.8 87 1.1 W 20 28 11 15 1020.2 1020.1 0.0
02/05:00am 14.0 10.8 12.0 88 1.1 W 20 26 11 14 1020.3 1020.2 0.0
02/04:30am 14.2 11.0 11.9 86 1.2 WSW 20 26 11 14 1020.2 1020.1 0.0
02/04:00am 14.7 10.0 12.0 84 1.5 WSW 28 35 15 19 1020.3 1020.2 0.0
02/03:30am 14.8 10.1 11.9 83 1.6 WSW 28 35 15 19 1020.5 1020.4 0.0
02/03:00am 15.0 10.3 12.1 83 1.6 WSW 28 39 15 21 1020.4 1020.3 0.0
02/02:30am 15.3 11.0 12.2 82 1.7 WSW 26 33 14 18 1020.4 1020.3 0.0
02/02:00am 15.3 11.8 12.2 82 1.7 WSW 22 32 12 17 1020.7 1020.6 0.0
02/01:30am 15.7 11.6 11.5 76 2.3 WSW 24 28 13 15 1021.0 1020.9 0.0
02/01:00am 15.2 11.9 12.9 86 1.3 W 22 28 12 15 1021.3 1021.2 0.0
02/12:30am 14.9 12.4 13.6 92 0.7 WNW 19 24 10 13 1021.4 1021.3 0.0
02/12:00am 14.9 11.8 13.4 91 0.8 WNW 22 30 12 16 1021.9 1021.8 0.0
 
Date/Time
EST
Temp
°C
App
Temp
°C
Dew
Point
Rel
Hum
%
Delta-T
°C
Wind Press
QNH
hPa
Press
MSL
hPa
Rain
since 9 am
mm
Dir
 
Spd
km/h
Gust
km/h
Spd
kts
Gust
kts
01/11:30pm 14.8 10.5 13.3 91 0.8 WSW 28 33 15 18 1022.0 1021.9 0.0
01/11:00pm 15.0 11.1 13.2 89 1.0 WSW 26 33 14 18 1022.2 1022.1 0.0
01/10:30pm 17.0 14.6 12.7 76 2.4 SW 17 24 9 13 1022.1 1022.0 0.0
01/10:00pm 17.2 16.0 12.7 75 2.5 WSW 11 13 6 7 1022.2 1022.1 0.0
01/09:30pm 17.1 16.6 12.8 76 2.4 W 7 9 4 5 1022.3 1022.2 0.0
01/09:00pm 17.1 16.6 12.8 76 2.4 SW 7 7 4 4 1022.5 1022.4 0.0
01/08:30pm 17.0 16.3 13.1 78 2.2 SSW 9 11 5 6 1022.5 1022.4 0.0
01/08:00pm 16.8 16.0 12.9 78 2.2 SSW 9 11 5 6 1022.4 1022.3 0.0
01/07:30pm 17.2 15.8 13.5 79 2.1 SSW 13 15 7 8 1022.2 1022.1 0.0
01/07:00pm 16.7 15.2 13.2 80 2.0 SSW 13 15 7 8 1022.0 1021.9 0.0
01/06:30pm 16.8 14.9 13.1 79 2.1 SSW 15 15 8 8 1021.8 1021.7 0.0
01/06:00pm 17.9 15.9 14.0 78 2.2 S 17 20 9 11 1021.6 1021.5 0.0
01/05:30pm 18.2 16.0 13.3 73 2.8 S 17 19 9 10 1021.3 1021.2 0.0
01/05:00pm 18.3 15.8 13.4 73 2.8 SSE 19 24 10 13 1021.2 1021.1 0.0
01/04:30pm 18.4 16.0 13.9 75 2.6 S 19 24 10 13 1021.0 1020.9 0.0
01/04:00pm 18.8 17.3 14.3 75 2.6 SE 15 22 8 12 1021.0 1020.9 0.0
01/03:30pm 19.1 17.2 14.1 73 2.9 SE 17 22 9 12 1021.0 1020.9 0.0
01/03:00pm 19.1 17.1 13.9 72 3.0 SE 17 22 9 12 1021.1 1021.0 0.0
01/02:30pm 19.2 17.6 13.8 71 3.1 SE 15 20 8 11 1021.2 1021.1 0.0
01/02:00pm 19.5 18.3 14.1 71 3.1 SSE 13 19 7 10 1021.4 1021.3 0.0
01/01:30pm 19.9 18.6 13.6 67 3.6 WSW 13 19 7 10 1021.6 1021.5 0.0
01/01:00pm 19.6 18.7 13.8 69 3.3 SSW 11 19 6 10 1021.8 1021.7 0.0
01/12:30pm 19.1 17.7 13.5 70 3.2 SSW 13 15 7 8 1022.3 1022.2 0.0
01/12:00pm 18.9 18.0 13.7 72 3.0 SSW 11 17 6 9 1022.9 1022.8 0.0
01/11:30am 18.5 17.7 14.0 75 2.6 SW 11 19 6 10 1023.4 1023.3 0.0
01/11:00am 17.4 16.0 13.5 78 2.2 WSW 13 19 7 10 1023.9 1023.8 0.0
01/10:30am 16.5 14.3 13.4 82 1.7 WSW 17 22 9 12 1024.2 1024.1 0.0
01/10:00am 15.5 12.6 12.8 84 1.5 W 20 28 11 15 1024.6 1024.5 0.0
01/09:30am 15.2 13.2 12.7 85 1.4 W 15 20 8 11 1024.6 1024.5 0.0
01/09:00am 15.3 12.4 13.0 86 1.3 WSW 20 28 11 15 1024.6 1024.5 0.2
01/08:30am 15.1 11.4 12.6 85 1.4 SW 24 30 13 16 1024.4 1024.3 0.2

Other Formats:

Comma delimited format used in spreadsheet applications
http://www.bom.gov.au/fwo/IDN60801/IDN60801.94599.axf

JavaScript Object Notation format (JSON) in row-major order
http://www.bom.gov.au/fwo/IDN60801/IDN60801.94599.json